createdAt,value
2022-09-02T00:00:44.588Z,1.43
2022-09-02T00:03:12.035Z,1.63
2022-09-02T00:05:38.690Z,1.37
2022-09-02T00:08:05.985Z,1.33
2022-09-02T00:10:36.055Z,1.40
2022-09-02T00:13:02.549Z,1.40
2022-09-02T00:15:29.141Z,1.40
2022-09-02T00:17:56.014Z,1.50
2022-09-02T00:20:25.755Z,1.20
2022-09-02T00:22:52.296Z,1.40
2022-09-02T00:25:18.908Z,1.37
2022-09-02T00:27:45.579Z,1.60
2022-09-02T00:30:13.408Z,1.60
2022-09-02T00:32:40.122Z,1.67
2022-09-02T00:35:07.401Z,1.83
2022-09-02T00:37:34.232Z,1.83
2022-09-02T00:40:01.428Z,1.70
2022-09-02T00:42:28.265Z,1.60
2022-09-02T00:44:54.859Z,1.30
2022-09-02T00:47:22.157Z,1.37
2022-09-02T00:49:51.788Z,1.23
2022-09-02T00:52:31.102Z,1.43
2022-09-02T00:55:10.290Z,1.40
2022-09-02T00:57:46.641Z,1.30
2022-09-02T01:00:22.534Z,1.30
2022-09-02T01:02:51.856Z,1.40
2022-09-02T01:05:20.437Z,1.30
2022-09-02T01:07:47.512Z,1.40
2022-09-02T01:10:17.937Z,1.50
2022-09-02T01:12:44.942Z,1.57
2022-09-02T01:15:12.860Z,1.37
2022-09-02T01:17:43.430Z,1.60
2022-09-02T01:20:13.931Z,1.20
2022-09-02T01:22:42.113Z,1.40
2022-09-02T01:25:14.915Z,1.20
2022-09-02T01:27:41.781Z,1.67
2022-09-02T01:30:11.986Z,1.17
2022-09-02T01:32:38.565Z,1.60
2022-09-02T01:35:06.450Z,1.47
2022-09-02T01:37:33.481Z,1.40
2022-09-02T01:40:00.905Z,1.50
2022-09-02T01:42:27.661Z,1.20
2022-09-02T01:44:54.364Z,1.27
2022-09-02T01:47:24.627Z,1.37
2022-09-02T01:49:51.561Z,1.10
2022-09-02T01:52:19.900Z,1.77
2022-09-02T01:54:46.618Z,1.33
2022-09-02T01:57:13.177Z,1.40
2022-09-02T01:59:39.751Z,1.43
2022-09-02T02:02:07.235Z,1.63
2022-09-02T02:04:34.054Z,1.30
2022-09-02T02:07:00.614Z,1.20
2022-09-02T02:09:28.557Z,1.63
2022-09-02T02:11:55.120Z,1.20
2022-09-02T02:14:22.266Z,1.43
2022-09-02T02:16:49.810Z,1.40
2022-09-02T02:19:16.401Z,1.23
2022-09-02T02:21:43.195Z,1.23
2022-09-02T02:24:09.960Z,1.33
2022-09-02T02:26:36.593Z,1.80
2022-09-02T02:29:04.021Z,1.00
2022-09-02T02:31:30.739Z,1.30
2022-09-02T02:33:58.566Z,1.20
2022-09-02T02:36:25.384Z,1.00
2022-09-02T02:38:52.042Z,1.40
2022-09-02T02:41:18.663Z,1.40
2022-09-02T02:43:45.243Z,1.33
2022-09-02T02:46:12.243Z,1.70
2022-09-02T02:48:39.301Z,1.27
2022-09-02T02:51:06.226Z,1.83
2022-09-02T02:53:34.710Z,1.77
2022-09-02T02:56:01.552Z,1.47
2022-09-02T02:58:28.296Z,1.57
2022-09-02T03:00:55.342Z,1.67
2022-09-02T03:03:22.653Z,1.77
2022-09-02T03:05:50.471Z,1.87
2022-09-02T03:08:21.167Z,1.70
2022-09-02T03:10:51.656Z,1.90
2022-09-02T03:13:18.213Z,1.83
2022-09-02T03:15:44.808Z,1.63
2022-09-02T03:18:11.617Z,1.70
2022-09-02T03:20:40.154Z,2.07
2022-09-02T03:23:06.780Z,2.13
2022-09-02T03:25:35.879Z,2.03
2022-09-02T03:28:03.493Z,1.77
2022-09-02T03:30:31.777Z,1.90
2022-09-02T03:33:03.874Z,1.80
2022-09-02T03:35:31.863Z,1.57
2022-09-02T03:37:59.796Z,2.03
2022-09-02T03:40:28.139Z,1.70
2022-09-02T03:42:59.742Z,1.90
2022-09-02T03:45:27.109Z,2.40
2022-09-02T03:47:57.344Z,2.00
2022-09-02T03:50:27.363Z,2.10
2022-09-02T03:52:55.043Z,2.00
2022-09-02T03:55:22.324Z,2.00
2022-09-02T03:57:48.941Z,1.90
2022-09-02T04:00:17.147Z,1.90
2022-09-02T04:02:44.362Z,2.23
2022-09-02T04:05:16.820Z,2.00
2022-09-02T04:07:44.461Z,2.00
2022-09-02T04:10:14.232Z,1.83
2022-09-02T04:12:43.868Z,1.97
2022-09-02T04:15:12.261Z,1.70
2022-09-02T04:17:40.480Z,1.90
2022-09-02T04:20:09.535Z,1.90
2022-09-02T04:22:36.883Z,1.60
2022-09-02T04:25:05.235Z,1.80
2022-09-02T04:27:31.965Z,1.70
2022-09-02T04:29:59.512Z,1.80
2022-09-02T04:32:26.930Z,1.70
2022-09-02T04:34:53.684Z,1.87
2022-09-02T04:37:20.465Z,1.70
2022-09-02T04:39:47.068Z,2.13
2022-09-02T04:42:13.594Z,1.87
2022-09-02T04:44:40.240Z,1.80
2022-09-02T04:47:07.141Z,1.97
2022-09-02T04:49:34.715Z,2.13
2022-09-02T04:52:01.311Z,1.80
2022-09-02T04:54:28.562Z,1.87
2022-09-02T04:56:55.477Z,1.90
2022-09-02T04:59:22.099Z,1.90
2022-09-02T05:01:50.540Z,2.47
2022-09-02T05:04:17.247Z,1.80
2022-09-02T05:06:44.667Z,2.23
2022-09-02T05:09:11.686Z,2.30
2022-09-02T05:11:38.818Z,3.53
2022-09-02T05:14:07.091Z,3.23
2022-09-02T05:16:40.199Z,2.80
2022-09-02T05:19:10.009Z,2.73
2022-09-02T05:21:41.822Z,3.17
2022-09-02T05:24:08.546Z,2.13
2022-09-02T05:26:36.019Z,2.57
2022-09-02T05:29:06.974Z,2.73
2022-09-02T05:31:34.168Z,2.20
2022-09-02T05:34:00.931Z,1.50
2022-09-02T05:36:27.796Z,1.70
2022-09-02T05:38:54.371Z,1.20
2022-09-02T05:41:23.579Z,1.50
2022-09-02T05:43:55.874Z,1.70
2022-09-02T05:46:25.506Z,1.50
2022-09-02T05:49:17.450Z,1.13
2022-09-02T05:51:55.128Z,1.50
2022-09-02T05:54:25.173Z,1.20
2022-09-02T05:56:54.285Z,1.10
2022-09-02T05:59:22.367Z,1.23
2022-09-02T06:01:49.473Z,1.50
2022-09-02T06:04:16.476Z,1.60
2022-09-02T06:06:43.268Z,1.23
2022-09-02T06:09:12.094Z,1.73
2022-09-02T06:11:40.392Z,1.60
2022-09-02T06:14:08.504Z,1.40
2022-09-02T06:16:36.268Z,1.73
2022-09-02T06:19:04.016Z,1.37
2022-09-02T06:21:32.115Z,1.60
2022-09-02T06:24:00.262Z,1.70
2022-09-02T06:26:27.168Z,1.60
2022-09-02T06:28:53.785Z,1.33
2022-09-02T06:31:22.537Z,1.27
2022-09-02T06:33:52.123Z,1.60
2022-09-02T06:36:19.306Z,2.10
2022-09-02T06:38:49.101Z,1.37
2022-09-02T06:41:18.931Z,1.27
2022-09-02T06:43:46.062Z,1.10
2022-09-02T06:46:18.424Z,1.43
2022-09-02T06:48:45.293Z,1.10
2022-09-02T06:51:32.255Z,1.47
2022-09-02T06:53:59.641Z,1.20
2022-09-02T06:56:27.992Z,1.40
2022-09-02T06:58:55.007Z,1.10
2022-09-02T07:01:24.628Z,1.50
2022-09-02T07:04:10.647Z,1.10
2022-09-02T07:06:40.125Z,1.10
2022-09-02T07:09:08.438Z,1.03
2022-09-02T07:11:35.462Z,1.20
2022-09-02T07:14:02.333Z,1.20
2022-09-02T07:16:31.477Z,1.17
2022-09-02T07:19:01.587Z,1.20
2022-09-02T07:21:29.465Z,1.03
2022-09-02T07:24:01.674Z,1.30
2022-09-02T07:26:29.221Z,1.77
2022-09-02T07:28:57.743Z,1.33
2022-09-02T07:31:24.893Z,1.23
2022-09-02T07:33:51.491Z,0.93
2022-09-02T07:36:21.715Z,1.60
2022-09-02T07:38:48.751Z,1.10
2022-09-02T07:41:15.494Z,1.10
2022-09-02T07:43:42.352Z,1.20
2022-09-02T07:46:09.244Z,1.10
2022-09-02T07:48:35.949Z,1.25
2022-09-02T07:51:03.099Z,0.90
2022-09-02T07:53:29.878Z,1.10
2022-09-02T07:55:57.411Z,0.73
2022-09-02T07:58:24.508Z,1.15
2022-09-02T08:00:51.554Z,0.90
2022-09-02T08:03:18.681Z,0.80
2022-09-02T08:05:47.296Z,0.80
2022-09-02T08:08:20.347Z,0.90
2022-09-02T08:10:49.194Z,0.80
2022-09-02T08:13:16.553Z,0.88
2022-09-02T08:15:43.858Z,0.80
2022-09-02T08:18:11.369Z,1.33
2022-09-02T08:20:49.082Z,1.83
2022-09-02T08:23:33.229Z,0.80
2022-09-02T08:26:02.838Z,0.80
2022-09-02T08:28:32.144Z,0.80
2022-09-02T08:30:59.350Z,0.70
2022-09-02T08:33:26.489Z,0.93
2022-09-02T08:35:53.276Z,0.67
2022-09-02T08:38:21.896Z,0.70
2022-09-02T08:40:50.216Z,0.80
2022-09-02T08:43:29.366Z,0.83
2022-09-02T08:45:58.964Z,0.50
2022-09-02T08:48:45.326Z,0.63
2022-09-02T08:51:32.135Z,0.50
2022-09-02T08:54:19.510Z,0.50
2022-09-02T08:56:46.241Z,0.60
2022-09-02T08:59:15.164Z,0.60
2022-09-02T09:01:46.468Z,0.50
2022-09-02T09:04:18.787Z,0.67
2022-09-02T09:07:07.598Z,0.50
2022-09-02T09:09:49.614Z,0.53
2022-09-02T09:12:34.490Z,0.60
2022-09-02T09:15:09.498Z,0.70
2022-09-02T09:17:53.467Z,0.57
2022-09-02T09:20:23.332Z,0.50
2022-09-02T09:22:51.367Z,0.70
2022-09-02T09:25:18.679Z,0.60
2022-09-02T09:27:46.265Z,0.50
2022-09-02T09:30:15.493Z,0.70
2022-09-02T09:32:54.862Z,0.43
2022-09-02T09:35:21.858Z,0.60
2022-09-02T09:37:50.302Z,0.50
2022-09-02T09:40:23.140Z,0.73
2022-09-02T09:43:24.510Z,0.70
2022-09-02T09:45:51.599Z,0.70
2022-09-02T09:48:29.905Z,0.60
2022-09-02T09:50:57.216Z,0.90
2022-09-02T09:53:28.273Z,0.80
2022-09-02T09:55:57.802Z,0.60
2022-09-02T09:58:28.596Z,0.50
2022-09-02T10:00:58.385Z,0.80
2022-09-02T10:03:27.298Z,1.03
2022-09-02T10:06:18.084Z,0.50
2022-09-02T10:08:58.502Z,0.40
2022-09-02T10:11:30.887Z,0.43
2022-09-02T10:14:10.138Z,0.53
2022-09-02T10:17:06.973Z,0.60
2022-09-02T10:20:13.167Z,0.40
2022-09-02T10:22:59.976Z,0.97
2022-09-02T10:25:39.199Z,0.60
2022-09-02T10:28:26.552Z,0.43
2022-09-02T10:31:23.682Z,0.90
2022-09-02T10:34:12.151Z,0.67
2022-09-02T10:37:01.811Z,1.00
2022-09-02T10:39:59.002Z,0.80
2022-09-02T10:43:01.332Z,1.30
2022-09-02T10:45:45.420Z,0.60
2022-09-02T10:48:36.594Z,0.70
2022-09-02T10:51:08.228Z,0.43
2022-09-02T10:53:43.746Z,0.47
2022-09-02T10:56:28.349Z,0.60
2022-09-02T10:59:05.736Z,0.60
2022-09-02T11:01:41.810Z,0.70
2022-09-02T11:04:14.164Z,0.50
2022-09-02T11:07:01.510Z,0.50
2022-09-02T11:09:41.720Z,0.60
2022-09-02T11:12:12.425Z,0.50
2022-09-02T11:15:06.888Z,0.60
2022-09-02T11:17:33.374Z,0.53
2022-09-02T11:20:08.033Z,0.60
2022-09-02T11:22:42.265Z,0.80
2022-09-02T11:25:18.246Z,0.30
2022-09-02T11:28:00.283Z,0.50
2022-09-02T11:30:52.572Z,0.60
2022-09-02T11:33:22.184Z,0.50
2022-09-02T11:35:50.879Z,0.70
2022-09-02T11:38:54.960Z,0.50
2022-09-02T11:41:44.492Z,0.50
2022-09-02T11:44:25.928Z,1.00
2022-09-02T11:47:21.154Z,0.50
2022-09-02T11:50:06.341Z,0.53
2022-09-02T11:52:46.589Z,0.60
2022-09-02T11:55:21.060Z,0.53
2022-09-02T11:57:55.191Z,0.83
2022-09-02T12:00:36.841Z,0.73
2022-09-02T12:03:16.772Z,0.83
2022-09-02T12:05:52.007Z,0.70
2022-09-02T12:08:28.021Z,0.50
2022-09-02T12:11:00.298Z,0.50
2022-09-02T12:13:37.402Z,0.60
2022-09-02T12:16:16.837Z,0.50
2022-09-02T12:19:00.262Z,0.60
2022-09-02T12:21:28.625Z,0.60
2022-09-02T12:23:58.710Z,0.40
2022-09-02T12:26:45.472Z,0.60
2022-09-02T12:29:24.693Z,0.70
2022-09-02T12:31:55.086Z,0.73
2022-09-02T12:34:21.669Z,0.67
2022-09-02T12:36:52.771Z,0.47
2022-09-02T12:39:25.422Z,0.60
2022-09-02T12:42:04.177Z,0.70
2022-09-02T12:45:01.347Z,0.70
2022-09-02T12:47:59.276Z,0.50
2022-09-02T12:50:54.885Z,0.50
2022-09-02T12:53:24.410Z,0.50
2022-09-02T12:55:59.863Z,0.80
2022-09-02T12:58:29.539Z,0.90
2022-09-02T13:01:31.001Z,0.53
2022-09-02T13:05:09.705Z,0.60
2022-09-02T13:08:08.411Z,0.70
2022-09-02T13:10:43.772Z,0.40
2022-09-02T13:13:17.177Z,0.70
2022-09-02T13:16:37.819Z,0.40
2022-09-02T13:19:42.513Z,0.40
2022-09-02T13:22:41.262Z,0.67
2022-09-02T13:25:13.279Z,0.50
2022-09-02T13:28:04.722Z,0.60
2022-09-02T13:30:50.230Z,0.50
2022-09-02T13:33:16.969Z,0.60
2022-09-02T13:35:43.822Z,0.60
2022-09-02T13:38:16.343Z,0.60
2022-09-02T13:40:46.281Z,0.60
2022-09-02T13:43:13.015Z,0.60
2022-09-02T13:45:39.887Z,0.50
2022-09-02T13:48:14.080Z,0.70
2022-09-02T13:50:48.297Z,0.57
2022-09-02T13:54:18.255Z,0.70
2022-09-02T13:56:15.582Z,0.60
2022-09-02T13:58:53.040Z,0.57
2022-09-02T14:01:33.087Z,0.47
2022-09-02T14:06:39.917Z,0.30
2022-09-02T14:09:07.993Z,0.50
2022-09-02T14:11:43.300Z,0.50
2022-09-02T14:14:14.792Z,0.63
2022-09-02T14:16:41.335Z,0.50
2022-09-02T14:19:16.897Z,0.63
2022-09-02T14:21:51.867Z,0.80
2022-09-02T14:24:24.883Z,0.80
2022-09-02T14:27:00.609Z,0.50
2022-09-02T14:29:31.371Z,0.30
2022-09-02T14:32:24.792Z,0.57
2022-09-02T14:35:10.391Z,0.50
2022-09-02T14:37:55.903Z,0.40
2022-09-02T14:40:34.600Z,0.50
2022-09-02T14:43:01.432Z,0.70
2022-09-02T14:45:28.835Z,0.60
2022-09-02T14:47:57.410Z,0.93
2022-09-02T14:50:28.650Z,0.60
2022-09-02T14:53:00.064Z,1.00
2022-09-02T14:55:46.423Z,0.57
2022-09-02T14:58:13.243Z,1.40
2022-09-02T15:00:39.764Z,1.37
2022-09-02T15:03:07.110Z,1.20
2022-09-02T15:05:33.855Z,1.43
2022-09-02T15:08:00.399Z,0.80
2022-09-02T15:10:28.436Z,1.03
2022-09-02T15:12:58.809Z,0.73
2022-09-02T15:15:27.388Z,0.87
2022-09-02T15:17:54.323Z,1.03
2022-09-02T15:20:23.823Z,0.50
2022-09-02T15:22:53.414Z,0.53
2022-09-02T15:25:20.625Z,0.50
2022-09-02T15:27:47.923Z,0.70
2022-09-02T15:30:14.717Z,0.60
2022-09-02T15:32:41.431Z,0.50
2022-09-02T15:35:09.420Z,0.40
2022-09-02T15:37:39.325Z,0.60
2022-09-02T15:40:07.846Z,0.90
2022-09-02T15:42:38.610Z,0.40
2022-09-02T15:45:08.692Z,0.50
2022-09-02T15:47:35.951Z,0.70
2022-09-02T15:50:02.780Z,0.60
2022-09-02T15:52:29.505Z,0.60
2022-09-02T15:54:56.951Z,0.50
2022-09-02T15:57:23.764Z,1.43
2022-09-02T15:59:51.460Z,0.70
2022-09-02T16:02:18.065Z,0.47
2022-09-02T16:04:44.943Z,0.50
2022-09-02T16:07:15.332Z,0.50
2022-09-02T16:09:43.459Z,0.50
2022-09-02T16:12:11.155Z,0.80
2022-09-02T16:14:37.605Z,0.60
2022-09-02T16:17:04.526Z,0.73
2022-09-02T16:19:31.103Z,1.00
2022-09-02T16:22:00.238Z,0.97
2022-09-02T16:24:26.760Z,1.50
2022-09-02T16:26:53.721Z,1.60
2022-09-02T16:29:21.082Z,1.30
2022-09-02T16:34:35.527Z,0.70
2022-09-02T16:37:02.276Z,0.90
2022-09-02T16:39:30.612Z,0.90
2022-09-02T16:41:58.635Z,0.70
2022-09-02T16:44:25.958Z,1.07
2022-09-02T16:46:53.239Z,0.77
2022-09-02T16:49:21.932Z,0.90
2022-09-02T16:51:50.728Z,0.70
2022-09-02T16:54:31.324Z,1.70
2022-09-02T16:56:59.701Z,0.80
2022-09-02T16:59:26.263Z,0.70
2022-09-02T17:01:53.146Z,0.77
2022-09-02T17:04:19.713Z,1.00
2022-09-02T17:06:46.254Z,0.77
2022-09-02T17:09:13.148Z,1.00
2022-09-02T17:11:41.214Z,1.10
2022-09-02T17:14:12.640Z,1.27
2022-09-02T17:16:45.414Z,1.10
2022-09-02T17:19:17.103Z,1.40
2022-09-02T17:21:47.402Z,1.20
2022-09-02T17:24:15.061Z,1.50
2022-09-02T17:26:43.793Z,1.20
2022-09-02T17:29:47.116Z,1.30
2022-09-02T17:32:06.697Z,1.40
2022-09-02T17:34:33.916Z,1.20
2022-09-02T17:37:00.491Z,1.17
2022-09-02T17:39:27.188Z,1.23
2022-09-02T17:41:59.603Z,0.90
2022-09-02T17:44:38.433Z,1.10
2022-09-02T17:47:10.548Z,1.50
2022-09-02T17:49:38.235Z,0.90
2022-09-02T17:52:08.072Z,0.90
2022-09-02T17:54:35.948Z,1.27
2022-09-02T17:57:21.840Z,1.40
2022-09-02T18:00:06.059Z,1.00
2022-09-02T18:02:35.490Z,1.10
2022-09-02T18:05:32.774Z,1.70
2022-09-02T18:08:25.810Z,1.23
2022-09-02T18:10:58.021Z,1.10
2022-09-02T18:13:40.124Z,1.40
2022-09-02T18:16:23.076Z,1.40
2022-09-02T18:19:02.336Z,1.00
2022-09-02T18:22:06.319Z,1.50
2022-09-02T18:25:10.462Z,1.83
2022-09-02T18:28:20.834Z,1.20
2022-09-02T18:31:12.091Z,2.23
2022-09-02T18:33:58.843Z,1.80
2022-09-02T18:36:25.348Z,2.07
2022-09-02T18:39:25.779Z,1.67
2022-09-02T18:42:14.147Z,1.37
2022-09-02T18:44:53.775Z,1.87
2022-09-02T18:47:23.717Z,1.90
2022-09-02T18:49:52.830Z,2.00
2022-09-02T18:52:24.920Z,1.97
2022-09-02T18:55:16.034Z,2.00
2022-09-02T18:57:56.021Z,1.73
2022-09-02T19:00:26.590Z,2.03
2022-09-02T19:03:01.505Z,2.00
2022-09-02T19:05:30.924Z,2.50
2022-09-02T19:08:33.343Z,2.10
2022-09-02T19:11:12.806Z,2.07
2022-09-02T19:13:44.606Z,1.60
2022-09-02T19:16:11.401Z,2.00
2022-09-02T19:18:37.953Z,2.10
2022-09-02T19:21:04.947Z,2.13
2022-09-02T19:23:31.742Z,2.20
2022-09-02T19:25:59.273Z,1.73
2022-09-02T19:28:26.769Z,1.80
2022-09-02T19:30:58.906Z,2.43
2022-09-02T19:33:26.894Z,2.33
2022-09-02T19:35:54.245Z,2.10
2022-09-02T19:38:20.827Z,2.70
2022-09-02T19:40:49.465Z,2.30
2022-09-02T19:43:16.794Z,2.30
2022-09-02T19:45:44.050Z,2.63
2022-09-02T19:48:11.415Z,2.50
2022-09-02T19:50:42.755Z,2.43
2022-09-02T19:53:28.112Z,1.97
2022-09-02T19:55:54.997Z,1.90
2022-09-02T19:58:21.533Z,2.20
2022-09-02T20:00:48.402Z,2.03
2022-09-02T20:03:15.563Z,1.77
2022-09-02T20:05:42.063Z,2.23
2022-09-02T20:08:11.683Z,1.73
2022-09-02T20:10:39.615Z,1.90
2022-09-02T20:13:06.903Z,1.93
2022-09-02T20:15:37.424Z,1.97
2022-09-02T20:18:15.418Z,2.30
2022-09-02T20:20:43.885Z,2.20
2022-09-02T20:23:15.065Z,1.73
2022-09-02T20:25:58.373Z,2.50
2022-09-02T20:28:28.745Z,1.70
2022-09-02T20:31:08.916Z,2.30
2022-09-02T20:33:49.254Z,1.80
2022-09-02T20:36:34.314Z,2.07
2022-09-02T20:39:11.660Z,2.07
2022-09-02T20:42:01.852Z,2.40
2022-09-02T20:44:38.100Z,2.07
2022-09-02T20:47:10.913Z,2.20
2022-09-02T20:49:56.868Z,2.03
2022-09-02T20:52:25.208Z,2.00
2022-09-02T20:55:18.108Z,2.07
2022-09-02T20:58:16.609Z,2.03
2022-09-02T21:00:47.458Z,2.23
2022-09-02T21:03:15.470Z,1.93
2022-09-02T21:05:47.340Z,1.97
2022-09-02T21:08:25.321Z,5.70
2022-09-02T21:10:55.225Z,3.07
2022-09-02T21:13:32.208Z,2.50
2022-09-02T21:16:05.871Z,3.40
2022-09-02T21:18:42.077Z,2.63
2022-09-02T21:21:18.308Z,2.13
2022-09-02T21:23:48.399Z,2.40
2022-09-02T21:26:49.308Z,2.60
2022-09-02T21:29:36.335Z,2.17
2022-09-02T21:32:05.330Z,2.03
2022-09-02T21:34:45.984Z,2.33
2022-09-02T21:37:13.719Z,2.80
2022-09-02T21:39:45.059Z,2.43
2022-09-02T21:42:30.444Z,2.47
2022-09-02T21:45:09.947Z,2.70
2022-09-02T21:47:59.388Z,2.43
2022-09-02T21:50:39.213Z,2.23
2022-09-02T21:53:37.607Z,3.13
2022-09-02T21:56:29.754Z,2.90
2022-09-02T21:59:53.569Z,2.67
2022-09-02T22:02:28.829Z,2.60
2022-09-02T22:05:13.618Z,2.33
2022-09-02T22:07:49.152Z,2.80
2022-09-02T22:10:28.687Z,2.50
2022-09-02T22:13:03.675Z,3.33
2022-09-02T22:16:01.517Z,3.33
2022-09-02T22:18:35.139Z,2.80
2022-09-02T22:21:17.251Z,3.67
2022-09-02T22:23:44.231Z,3.70
2022-09-02T22:26:35.404Z,3.03
2022-09-02T22:29:05.115Z,3.20
2022-09-02T22:31:35.922Z,2.90
2022-09-02T22:34:04.443Z,2.90
2022-09-02T22:37:00.158Z,3.23
2022-09-02T22:39:33.918Z,3.23
2022-09-02T22:42:10.113Z,3.10
2022-09-02T22:45:01.080Z,3.00
2022-09-02T22:47:48.043Z,3.10
2022-09-02T22:50:38.647Z,3.23
2022-09-02T22:53:05.185Z,3.33
2022-09-02T22:55:51.909Z,3.07
2022-09-02T22:58:47.582Z,3.70
2022-09-02T23:01:54.026Z,3.17
2022-09-02T23:04:54.834Z,3.73
2022-09-02T23:07:23.945Z,3.53
2022-09-02T23:09:54.841Z,3.73
2022-09-02T23:12:34.413Z,3.70
2022-09-02T23:15:10.244Z,2.80
2022-09-02T23:17:58.603Z,4.00
2022-09-02T23:20:32.294Z,3.33
2022-09-02T23:23:22.834Z,3.60
2022-09-02T23:26:09.785Z,3.30
2022-09-02T23:28:52.540Z,3.63
2022-09-02T23:31:32.296Z,3.50
2022-09-02T23:34:03.242Z,3.80
2022-09-02T23:36:50.739Z,3.53
2022-09-02T23:39:55.172Z,3.37
2022-09-02T23:42:22.041Z,3.23
2022-09-02T23:44:50.249Z,2.93
2022-09-02T23:47:40.721Z,3.10
2022-09-02T23:50:11.353Z,3.30
2022-09-02T23:52:56.928Z,3.30
2022-09-02T23:55:51.148Z,2.87
2022-09-02T23:58:44.758Z,2.70
